createdAt,value
2022-09-18T00:01:39.610Z,100.00
2022-09-18T00:04:09.230Z,100.00
2022-09-18T00:06:41.294Z,100.00
2022-09-18T00:09:12.483Z,100.00
2022-09-18T00:11:43.912Z,100.00
2022-09-18T00:14:15.077Z,100.00
2022-09-18T00:16:43.396Z,100.00
2022-09-18T00:19:12.456Z,100.00
2022-09-18T00:21:43.146Z,100.00
2022-09-18T00:24:11.808Z,100.00
2022-09-18T00:26:40.658Z,100.00
2022-09-18T00:29:08.720Z,100.00
2022-09-18T00:31:37.424Z,100.00
2022-09-18T00:34:08.877Z,100.00
2022-09-18T00:36:39.131Z,100.00
2022-09-18T00:39:08.108Z,100.00
2022-09-18T00:41:39.036Z,100.00
2022-09-18T00:44:44.687Z,100.00
2022-09-18T00:47:12.587Z,100.00
2022-09-18T00:49:52.810Z,100.00
2022-09-18T00:52:23.987Z,100.00
2022-09-18T00:54:58.685Z,100.00
2022-09-18T00:57:33.012Z,100.00
2022-09-18T01:00:04.347Z,100.00
2022-09-18T01:02:32.786Z,100.00
2022-09-18T01:05:00.803Z,100.00
2022-09-18T01:07:50.798Z,100.00
2022-09-18T01:10:21.489Z,100.00
2022-09-18T01:12:57.349Z,100.00
2022-09-18T01:15:31.118Z,100.00
2022-09-18T01:18:00.104Z,100.00
2022-09-18T01:20:49.109Z,100.00
2022-09-18T01:23:23.280Z,100.00
2022-09-18T01:26:09.325Z,100.00
2022-09-18T01:28:43.994Z,100.00
2022-09-18T01:31:20.425Z,100.00
2022-09-18T01:34:04.392Z,100.00
2022-09-18T01:36:37.614Z,100.00
2022-09-18T01:39:15.091Z,100.00
2022-09-18T01:41:50.929Z,100.00
2022-09-18T01:44:31.619Z,100.00
2022-09-18T01:47:09.506Z,100.00
2022-09-18T01:49:43.316Z,100.00
2022-09-18T01:52:17.980Z,100.00
2022-09-18T01:54:50.429Z,100.00
2022-09-18T01:57:28.447Z,100.00
2022-09-18T01:59:59.234Z,100.00
2022-09-18T02:02:34.016Z,100.00
2022-09-18T02:05:07.682Z,100.00
2022-09-18T02:07:40.023Z,100.00
2022-09-18T02:10:08.402Z,100.00
2022-09-18T02:12:41.240Z,100.00
2022-09-18T02:15:13.515Z,100.00
2022-09-18T02:17:59.238Z,100.00
2022-09-18T02:20:38.141Z,100.00
2022-09-18T02:23:08.450Z,100.00
2022-09-18T02:25:52.207Z,100.00
2022-09-18T02:28:23.415Z,100.00
2022-09-18T02:30:51.804Z,100.00
2022-09-18T02:33:34.488Z,100.00
2022-09-18T02:36:11.906Z,100.00
2022-09-18T02:38:58.651Z,100.00
2022-09-18T02:41:53.333Z,100.00
2022-09-18T02:44:48.709Z,100.00
2022-09-18T02:47:59.183Z,100.00
2022-09-18T02:50:49.545Z,100.00
2022-09-18T02:53:17.365Z,100.00
2022-09-18T02:56:02.624Z,100.00
2022-09-18T02:58:48.948Z,100.00
2022-09-18T03:01:19.639Z,100.00
2022-09-18T03:03:48.078Z,100.00
2022-09-18T03:06:18.449Z,100.00
2022-09-18T03:08:47.265Z,100.00
2022-09-18T03:11:15.231Z,100.00
2022-09-18T03:13:45.016Z,100.00
2022-09-18T03:16:13.277Z,100.00
2022-09-18T03:18:43.725Z,100.00
2022-09-18T03:21:11.556Z,100.00
2022-09-18T03:23:43.474Z,100.00
2022-09-18T03:26:20.844Z,100.00
2022-09-18T03:28:49.211Z,100.00
2022-09-18T03:31:17.868Z,100.00
2022-09-18T03:33:46.910Z,100.00
2022-09-18T03:36:15.159Z,100.00
2022-09-18T03:38:43.218Z,100.00
2022-09-18T03:41:12.220Z,100.00
2022-09-18T03:43:42.078Z,100.00
2022-09-18T03:46:12.281Z,100.00
2022-09-18T03:48:40.290Z,100.00
2022-09-18T03:51:09.056Z,100.00
2022-09-18T03:53:36.963Z,100.00
2022-09-18T03:56:23.491Z,100.00
2022-09-18T03:59:07.647Z,100.00
2022-09-18T04:01:54.224Z,100.00
2022-09-18T04:04:29.242Z,100.00
2022-09-18T04:07:09.355Z,100.00
2022-09-18T04:10:01.626Z,100.00
2022-09-18T04:12:29.678Z,100.00
2022-09-18T04:15:17.252Z,100.00
2022-09-18T04:17:45.700Z,100.00
2022-09-18T04:20:14.815Z,100.00
2022-09-18T04:22:43.601Z,100.00
2022-09-18T04:25:12.745Z,100.00
2022-09-18T04:27:40.985Z,100.00
2022-09-18T04:30:09.962Z,100.00
2022-09-18T04:32:40.560Z,100.00
2022-09-18T04:35:08.664Z,100.00
2022-09-18T04:37:37.288Z,100.00
2022-09-18T04:40:06.756Z,100.00
2022-09-18T04:42:34.997Z,100.00
2022-09-18T04:45:04.028Z,100.00
2022-09-18T04:47:31.957Z,100.00
2022-09-18T04:49:59.828Z,100.00
2022-09-18T04:52:28.903Z,100.00
2022-09-18T04:54:57.127Z,100.00
2022-09-18T04:57:25.365Z,100.00
2022-09-18T04:59:53.667Z,100.00
2022-09-18T05:02:21.899Z,100.00
2022-09-18T05:04:52.913Z,100.00
2022-09-18T05:07:31.322Z,100.00
2022-09-18T05:09:59.276Z,100.00
2022-09-18T05:12:28.337Z,100.00
2022-09-18T05:14:56.250Z,100.00
2022-09-18T05:17:25.469Z,100.00
2022-09-18T05:20:02.032Z,100.00
2022-09-18T05:22:36.919Z,100.00
2022-09-18T05:25:05.676Z,100.00
2022-09-18T05:27:34.290Z,100.00
2022-09-18T05:30:02.382Z,100.00
2022-09-18T05:32:58.738Z,100.00
2022-09-18T05:35:29.740Z,100.00
2022-09-18T05:37:59.812Z,100.00
2022-09-18T05:40:31.531Z,100.00
2022-09-18T05:43:03.063Z,100.00
2022-09-18T05:45:33.601Z,100.00
2022-09-18T05:48:05.785Z,100.00
2022-09-18T05:50:36.701Z,100.00
2022-09-18T05:53:08.392Z,100.00
2022-09-18T05:55:56.505Z,100.00
2022-09-18T05:58:25.400Z,100.00
2022-09-18T06:00:57.842Z,100.00
2022-09-18T06:03:27.570Z,100.00
2022-09-18T06:05:55.401Z,100.00
2022-09-18T06:08:23.579Z,100.00
2022-09-18T06:10:52.409Z,100.00
2022-09-18T06:13:20.446Z,100.00
2022-09-18T06:15:54.537Z,100.00
2022-09-18T06:18:37.024Z,100.00
2022-09-18T06:21:05.418Z,100.00
2022-09-18T06:23:33.790Z,100.00
2022-09-18T06:26:14.563Z,100.00
2022-09-18T06:28:43.203Z,100.00
2022-09-18T06:31:11.332Z,100.00
2022-09-18T06:33:52.523Z,100.00
2022-09-18T06:36:20.443Z,100.00
2022-09-18T06:39:10.955Z,100.00
2022-09-18T06:41:38.993Z,100.00
2022-09-18T06:44:17.556Z,100.00
2022-09-18T06:46:49.758Z,100.00
2022-09-18T06:49:25.799Z,100.00
2022-09-18T06:51:54.176Z,100.00
2022-09-18T06:54:22.093Z,100.00
2022-09-18T06:56:50.267Z,100.00
2022-09-18T06:59:19.546Z,100.00
2022-09-18T07:01:48.944Z,100.00
2022-09-18T07:04:21.610Z,100.00
2022-09-18T07:06:49.415Z,100.00
2022-09-18T07:09:17.704Z,100.00
2022-09-18T07:12:06.146Z,100.00
2022-09-18T07:14:41.329Z,100.00
2022-09-18T07:17:17.669Z,100.00
2022-09-18T07:19:47.319Z,100.00
2022-09-18T07:22:16.878Z,100.00
2022-09-18T07:24:47.303Z,100.00
2022-09-18T07:27:15.260Z,100.00
2022-09-18T07:29:44.061Z,100.00
2022-09-18T07:32:14.473Z,100.00
2022-09-18T07:34:44.767Z,100.00
2022-09-18T07:37:14.556Z,100.00
2022-09-18T07:39:45.296Z,100.00
2022-09-18T07:42:33.432Z,100.00
2022-09-18T07:45:02.218Z,100.00
2022-09-18T07:47:30.593Z,100.00
2022-09-18T07:50:00.518Z,100.00
2022-09-18T07:52:28.782Z,100.00
2022-09-18T07:54:57.819Z,100.00
2022-09-18T07:57:31.837Z,100.00
2022-09-18T08:00:15.966Z,100.00
2022-09-18T08:02:44.028Z,100.00
2022-09-18T08:05:20.466Z,100.00
2022-09-18T08:07:54.190Z,100.00
2022-09-18T08:10:36.846Z,100.00
2022-09-18T08:13:32.319Z,100.00
2022-09-18T08:16:21.891Z,100.00
2022-09-18T08:19:13.289Z,100.00
2022-09-18T08:21:52.437Z,100.00
2022-09-18T08:24:20.454Z,100.00
2022-09-18T08:26:48.323Z,100.00
2022-09-18T08:29:19.380Z,100.00
2022-09-18T08:32:09.963Z,100.00
2022-09-18T08:34:39.217Z,100.00
2022-09-18T08:37:07.081Z,100.00
2022-09-18T08:39:53.762Z,100.00
2022-09-18T08:43:02.136Z,100.00
2022-09-18T08:46:08.102Z,100.00
2022-09-18T08:48:55.919Z,100.00
2022-09-18T08:51:49.886Z,100.00
2022-09-18T08:54:39.130Z,100.00
2022-09-18T08:57:37.908Z,100.00
2022-09-18T09:00:24.137Z,100.00
2022-09-18T09:03:30.707Z,100.00
2022-09-18T09:06:07.489Z,100.00
2022-09-18T09:08:55.137Z,100.00
2022-09-18T09:11:40.361Z,100.00
2022-09-18T09:14:39.725Z,100.00
2022-09-18T09:17:28.688Z,100.00
2022-09-18T09:20:12.439Z,100.00
2022-09-18T09:22:54.393Z,100.00
2022-09-18T09:25:40.551Z,100.00
2022-09-18T09:28:29.102Z,100.00
2022-09-18T09:31:46.288Z,100.00
2022-09-18T09:34:44.734Z,100.00
2022-09-18T09:37:38.734Z,100.00
2022-09-18T09:40:14.183Z,100.00
2022-09-18T09:42:56.854Z,100.00
2022-09-18T09:45:30.578Z,100.00
2022-09-18T09:48:21.704Z,100.00
2022-09-18T09:51:08.692Z,100.00
2022-09-18T09:53:36.681Z,100.00
2022-09-18T09:56:20.300Z,100.00
2022-09-18T09:58:55.889Z,100.00
2022-09-18T10:01:45.902Z,100.00
2022-09-18T10:04:46.822Z,100.00
2022-09-18T10:07:23.671Z,100.00
2022-09-18T10:10:06.725Z,100.00
2022-09-18T10:12:52.545Z,100.00
2022-09-18T10:15:47.135Z,100.00
2022-09-18T10:18:27.125Z,100.00
2022-09-18T10:21:12.545Z,100.00
2022-09-18T10:23:43.411Z,100.00
2022-09-18T10:26:18.153Z,100.00
2022-09-18T10:28:46.165Z,100.00
2022-09-18T10:31:14.795Z,100.00
2022-09-18T10:33:50.236Z,100.00
2022-09-18T10:36:43.434Z,100.00
2022-09-18T10:39:33.733Z,100.00
2022-09-18T10:42:16.872Z,100.00
2022-09-18T10:44:49.661Z,100.00
2022-09-18T10:47:25.797Z,100.00
2022-09-18T10:50:10.472Z,100.00
2022-09-18T10:52:44.422Z,100.00
2022-09-18T10:55:26.027Z,100.00
2022-09-18T10:58:28.963Z,100.00
2022-09-18T11:01:02.804Z,100.00
2022-09-18T11:04:02.181Z,100.00
2022-09-18T11:06:36.085Z,100.00
2022-09-18T11:09:37.261Z,100.00
2022-09-18T11:12:12.747Z,100.00
2022-09-18T11:14:46.068Z,100.00
2022-09-18T11:17:31.994Z,100.00
2022-09-18T11:20:03.790Z,100.00
2022-09-18T11:22:44.728Z,100.00
2022-09-18T11:25:42.093Z,100.00
2022-09-18T11:28:28.282Z,100.00
2022-09-18T11:31:11.884Z,100.00
2022-09-18T11:33:50.645Z,100.00
2022-09-18T11:36:29.326Z,100.00
2022-09-18T11:39:00.438Z,100.00
2022-09-18T11:41:37.261Z,100.00
2022-09-18T11:44:12.503Z,100.00
2022-09-18T11:46:54.090Z,100.00
2022-09-18T11:49:35.282Z,99.50
2022-09-18T11:52:14.242Z,97.91
2022-09-18T11:55:14.359Z,97.27
2022-09-18T11:57:48.218Z,95.31
2022-09-18T12:00:20.797Z,96.67
2022-09-18T12:03:13.505Z,93.55
2022-09-18T12:06:16.939Z,94.54
2022-09-18T12:08:55.133Z,96.29
2022-09-18T12:11:30.190Z,95.84
2022-09-18T12:14:09.871Z,95.70
2022-09-18T12:16:46.034Z,95.35
2022-09-18T12:19:34.610Z,94.27
2022-09-18T12:22:29.498Z,90.05
2022-09-18T12:24:58.231Z,91.32
2022-09-18T12:27:54.833Z,89.58
2022-09-18T12:30:33.452Z,88.28
2022-09-18T12:33:35.643Z,88.98
2022-09-18T12:36:29.186Z,88.67
2022-09-18T12:39:18.576Z,88.17
2022-09-18T12:42:17.458Z,90.24
2022-09-18T12:45:23.938Z,89.87
2022-09-18T12:48:25.646Z,89.77
2022-09-18T12:51:20.956Z,88.60
2022-09-18T12:54:12.846Z,86.58
2022-09-18T12:56:46.793Z,83.17
2022-09-18T12:59:36.685Z,82.87
2022-09-18T13:02:31.779Z,80.96
2022-09-18T13:05:25.703Z,82.89
2022-09-18T13:08:05.662Z,84.04
2022-09-18T13:10:39.473Z,83.98
2022-09-18T13:13:37.886Z,84.78
2022-09-18T13:16:08.368Z,84.25
2022-09-18T13:18:50.279Z,85.31
2022-09-18T13:21:27.797Z,83.62
2022-09-18T13:23:57.631Z,82.94
2022-09-18T13:26:30.696Z,81.02
2022-09-18T13:28:59.305Z,81.76
2022-09-18T13:31:28.506Z,82.56
2022-09-18T13:33:56.421Z,82.50
2022-09-18T13:36:30.978Z,82.50
2022-09-18T13:39:03.505Z,81.38
2022-09-18T13:42:01.845Z,78.78
2022-09-18T13:44:38.069Z,78.56
2022-09-18T13:47:11.137Z,79.36
2022-09-18T13:49:50.504Z,78.19
2022-09-18T13:52:33.375Z,76.34
2022-09-18T13:55:13.661Z,75.83
2022-09-18T13:57:43.515Z,76.34
2022-09-18T14:00:20.476Z,76.27
2022-09-18T14:03:12.140Z,76.85
2022-09-18T14:05:42.342Z,78.90
2022-09-18T14:08:35.329Z,78.69
2022-09-18T14:11:15.543Z,79.70
2022-09-18T14:13:54.673Z,81.23
2022-09-18T14:16:23.913Z,82.17
2022-09-18T14:19:01.289Z,82.51
2022-09-18T14:21:43.858Z,83.39
2022-09-18T14:24:38.208Z,80.62
2022-09-18T14:27:31.409Z,79.19
2022-09-18T14:30:02.798Z,79.15
2022-09-18T14:32:31.725Z,78.98
2022-09-18T14:35:53.715Z,79.24
2022-09-18T14:38:34.118Z,77.94
2022-09-18T14:41:09.248Z,77.06
2022-09-18T14:43:39.642Z,77.76
2022-09-18T14:46:18.500Z,77.37
2022-09-18T14:48:46.494Z,76.90
2022-09-18T14:51:27.117Z,77.29
2022-09-18T14:53:57.532Z,77.66
2022-09-18T14:56:37.185Z,77.85
2022-09-18T14:59:08.513Z,79.14
2022-09-18T15:01:38.257Z,79.34
2022-09-18T15:04:13.868Z,80.05
2022-09-18T15:06:53.847Z,80.65
2022-09-18T15:09:29.686Z,81.50
2022-09-18T15:12:04.992Z,82.15
2022-09-18T15:14:45.691Z,82.50
2022-09-18T15:17:23.413Z,83.26
2022-09-18T15:20:00.104Z,84.18
2022-09-18T15:22:29.800Z,84.04
2022-09-18T15:25:00.960Z,84.48
2022-09-18T15:27:31.701Z,85.17
2022-09-18T15:30:04.804Z,85.65
2022-09-18T15:32:38.752Z,86.40
2022-09-18T15:35:14.938Z,87.11
2022-09-18T15:38:00.871Z,88.47
2022-09-18T15:40:37.376Z,90.16
2022-09-18T15:43:32.217Z,92.53
2022-09-18T15:46:06.081Z,95.60
2022-09-18T15:48:40.032Z,95.99
2022-09-18T15:51:26.310Z,95.83
2022-09-18T15:54:13.277Z,97.17
2022-09-18T15:56:54.276Z,97.90
2022-09-18T15:59:40.731Z,97.53
2022-09-18T16:02:35.199Z,98.19
2022-09-18T16:05:15.316Z,99.24
2022-09-18T16:07:53.248Z,99.40
2022-09-18T16:10:41.116Z,99.01
2022-09-18T16:13:11.863Z,97.94
2022-09-18T16:15:41.031Z,98.80
2022-09-18T16:18:27.436Z,99.47
2022-09-18T16:20:55.275Z,99.64
2022-09-18T16:23:50.790Z,99.81
2022-09-18T16:26:24.825Z,100.00
2022-09-18T16:28:56.163Z,100.00
2022-09-18T16:31:27.084Z,100.00
2022-09-18T16:34:04.679Z,100.00
2022-09-18T16:36:41.494Z,100.00
2022-09-18T16:39:15.165Z,100.00
2022-09-18T16:41:43.893Z,100.00
2022-09-18T16:44:13.782Z,100.00
2022-09-18T16:46:46.551Z,100.00
2022-09-18T16:49:18.816Z,100.00
2022-09-18T16:51:46.718Z,100.00
2022-09-18T16:54:14.583Z,100.00
2022-09-18T16:56:51.677Z,100.00
2022-09-18T16:59:21.887Z,100.00
2022-09-18T17:02:03.261Z,100.00
2022-09-18T17:04:32.499Z,100.00
2022-09-18T17:07:01.252Z,100.00
2022-09-18T17:09:29.406Z,100.00
2022-09-18T17:11:57.277Z,100.00
2022-09-18T17:14:25.225Z,100.00
2022-09-18T17:16:53.229Z,100.00
2022-09-18T17:19:21.505Z,100.00
2022-09-18T17:21:50.298Z,100.00
2022-09-18T17:24:24.115Z,100.00
2022-09-18T17:26:54.102Z,100.00
2022-09-18T17:29:22.255Z,100.00
2022-09-18T17:31:50.540Z,100.00
2022-09-18T17:34:19.103Z,100.00
2022-09-18T17:36:46.930Z,100.00
2022-09-18T17:39:17.083Z,100.00
2022-09-18T17:41:46.032Z,100.00
2022-09-18T17:44:15.341Z,100.00
2022-09-18T17:46:43.227Z,100.00
2022-09-18T17:49:11.168Z,100.00
2022-09-18T17:51:39.148Z,100.00
2022-09-18T17:54:07.012Z,100.00
2022-09-18T17:56:35.178Z,100.00
2022-09-18T17:59:06.471Z,100.00
2022-09-18T18:01:38.304Z,100.00
2022-09-18T18:04:07.202Z,100.00
2022-09-18T18:06:36.997Z,100.00
2022-09-18T18:09:07.436Z,100.00
2022-09-18T18:11:35.795Z,100.00
2022-09-18T18:14:05.419Z,100.00
2022-09-18T18:16:34.512Z,100.00
2022-09-18T18:19:06.264Z,100.00
2022-09-18T18:21:34.909Z,100.00
2022-09-18T18:24:06.292Z,100.00
2022-09-18T18:26:34.356Z,100.00
2022-09-18T18:29:02.523Z,100.00
2022-09-18T18:31:31.231Z,100.00
2022-09-18T18:33:59.560Z,100.00
2022-09-18T18:36:29.935Z,100.00
2022-09-18T18:38:59.751Z,100.00
2022-09-18T18:41:30.293Z,100.00
2022-09-18T18:44:02.057Z,100.00
2022-09-18T18:46:35.966Z,100.00
2022-09-18T18:49:09.193Z,100.00
2022-09-18T18:51:47.390Z,100.00
2022-09-18T18:54:18.049Z,100.00
2022-09-18T18:56:47.160Z,100.00
2022-09-18T18:59:17.486Z,100.00
2022-09-18T19:01:45.816Z,100.00
2022-09-18T19:04:19.065Z,100.00
2022-09-18T19:06:49.224Z,100.00
2022-09-18T19:09:26.185Z,100.00
2022-09-18T19:11:54.265Z,100.00
2022-09-18T19:14:25.274Z,100.00
2022-09-18T19:16:54.929Z,100.00
2022-09-18T19:19:25.279Z,100.00
2022-09-18T19:21:53.569Z,100.00
2022-09-18T19:24:21.567Z,100.00
2022-09-18T19:26:49.748Z,100.00
2022-09-18T19:29:19.380Z,100.00
2022-09-18T19:31:48.257Z,100.00
2022-09-18T19:34:19.373Z,100.00
2022-09-18T19:36:50.157Z,100.00
2022-09-18T19:39:21.115Z,100.00
2022-09-18T19:42:03.324Z,100.00
2022-09-18T19:44:40.885Z,100.00
2022-09-18T19:47:28.155Z,100.00
2022-09-18T19:49:57.682Z,100.00
2022-09-18T19:52:28.731Z,100.00
2022-09-18T19:54:58.743Z,100.00
2022-09-18T19:57:28.439Z,100.00
2022-09-18T19:59:57.420Z,100.00
2022-09-18T20:02:25.788Z,100.00
2022-09-18T20:04:54.298Z,100.00
2022-09-18T20:07:22.152Z,100.00
2022-09-18T20:09:50.656Z,100.00
2022-09-18T20:12:18.643Z,100.00
2022-09-18T20:14:46.582Z,100.00
2022-09-18T20:17:14.453Z,100.00
2022-09-18T20:19:42.278Z,100.00
2022-09-18T20:22:10.392Z,100.00
2022-09-18T20:24:38.989Z,100.00
2022-09-18T20:27:06.801Z,100.00
2022-09-18T20:29:34.777Z,100.00
2022-09-18T20:32:03.017Z,100.00
2022-09-18T20:34:30.865Z,100.00
2022-09-18T20:36:59.249Z,100.00
2022-09-18T20:39:27.419Z,100.00
2022-09-18T20:42:00.520Z,100.00
2022-09-18T20:44:29.905Z,100.00
2022-09-18T20:46:58.293Z,100.00
2022-09-18T20:49:26.312Z,100.00
2022-09-18T20:51:54.844Z,100.00
2022-09-18T20:54:24.557Z,100.00
2022-09-18T20:56:52.955Z,100.00
2022-09-18T20:59:21.097Z,100.00
2022-09-18T21:01:49.052Z,100.00
2022-09-18T21:04:19.732Z,100.00
2022-09-18T21:06:56.287Z,100.00
2022-09-18T21:09:27.025Z,100.00
2022-09-18T21:11:56.980Z,100.00
2022-09-18T21:14:27.467Z,100.00
2022-09-18T21:16:56.138Z,100.00
2022-09-18T21:19:26.373Z,100.00
2022-09-18T21:21:54.665Z,100.00
2022-09-18T21:24:22.715Z,100.00
2022-09-18T21:26:50.737Z,100.00
2022-09-18T21:29:26.699Z,100.00
2022-09-18T21:31:57.488Z,100.00
2022-09-18T21:34:31.487Z,100.00
2022-09-18T21:37:02.895Z,100.00
2022-09-18T21:39:32.378Z,100.00
2022-09-18T21:42:01.676Z,100.00
2022-09-18T21:44:31.866Z,100.00
2022-09-18T21:47:03.478Z,100.00
2022-09-18T21:49:31.996Z,100.00
2022-09-18T21:52:06.460Z,100.00
2022-09-18T21:54:34.599Z,100.00
2022-09-18T21:57:03.192Z,100.00
2022-09-18T21:59:32.155Z,100.00
2022-09-18T22:02:00.822Z,100.00
2022-09-18T22:04:32.366Z,100.00
2022-09-18T22:07:01.705Z,100.00
2022-09-18T22:09:33.575Z,100.00
2022-09-18T22:12:05.412Z,100.00
2022-09-18T22:14:35.110Z,100.00
2022-09-18T22:17:06.731Z,100.00
2022-09-18T22:19:38.187Z,100.00
2022-09-18T22:22:07.250Z,100.00
2022-09-18T22:24:35.126Z,100.00
2022-09-18T22:27:08.774Z,100.00
2022-09-18T22:29:39.516Z,100.00
2022-09-18T22:32:10.217Z,100.00
2022-09-18T22:34:38.124Z,100.00
2022-09-18T22:37:06.071Z,100.00
2022-09-18T22:39:33.938Z,100.00
2022-09-18T22:42:02.043Z,100.00
2022-09-18T22:44:31.602Z,100.00
2022-09-18T22:46:59.772Z,100.00
2022-09-18T22:49:27.663Z,100.00
2022-09-18T22:51:55.693Z,100.00
2022-09-18T22:54:27.790Z,100.00
2022-09-18T22:56:57.063Z,100.00
2022-09-18T22:59:26.642Z,100.00
2022-09-18T23:01:59.001Z,100.00
2022-09-18T23:04:29.437Z,100.00
2022-09-18T23:06:58.950Z,100.00
2022-09-18T23:09:27.920Z,100.00
2022-09-18T23:11:57.903Z,100.00
2022-09-18T23:14:28.837Z,100.00
2022-09-18T23:16:58.065Z,100.00
2022-09-18T23:19:28.609Z,100.00
2022-09-18T23:21:56.722Z,100.00
2022-09-18T23:24:25.557Z,100.00
2022-09-18T23:26:56.548Z,100.00
2022-09-18T23:29:26.786Z,100.00
2022-09-18T23:31:57.622Z,100.00
2022-09-18T23:34:30.371Z,100.00
2022-09-18T23:36:59.396Z,100.00
2022-09-18T23:39:33.826Z,100.00
2022-09-18T23:42:03.783Z,100.00
2022-09-18T23:44:31.782Z,100.00
2022-09-18T23:47:00.912Z,100.00
2022-09-18T23:49:30.295Z,100.00
2022-09-18T23:51:59.536Z,100.00
2022-09-18T23:54:30.456Z,100.00
2022-09-18T23:56:58.808Z,100.00
2022-09-18T23:59:27.675Z,100.00
